Time;durP1;ratioP1;P1;durP2;ratioP2;P2;SDS_P1;SDS_P2;PMS_P1;PMS_P2;Temp;Humidity;BMP_temperature;BMP_pressure;BME280_temperature;BME280_humidity;BME280_pressure;Samples;Min_cycle;Max_cycle;Signal;HPM_P1;HPM_P2
2021/12/27 00:00:09;;;;;;;2.72;1.70;;;;;;;;;;4973474;28;20045;-66
2021/12/27 00:02:35;;;;;;;2.13;1.52;;;;;;;;;;4973814;28;20082;-66
2021/12/27 00:05:01;;;;;;;2.95;1.33;;;;;;;;;;4972983;28;20100;-65
2021/12/27 00:07:27;;;;;;;2.67;1.40;;;;;;;;;;4973686;28;20459;-65
2021/12/27 00:09:54;;;;;;;2.10;1.63;;;;;;;;;;4972747;28;20037;-66
2021/12/27 00:12:20;;;;;;;2.85;1.33;;;;;;;;;;4973270;28;20019;-65
2021/12/27 00:14:46;;;;;;;4.05;1.48;;;;;;;;;;4972971;28;20117;-65
2021/12/27 00:17:12;;;;;;;1.45;1.33;;;;;;;;;;4973569;28;20086;-66
2021/12/27 00:19:38;;;;;;;2.25;1.58;;;;;;;;;;4973526;28;20069;-66
2021/12/27 00:22:04;;;;;;;2.35;1.58;;;;;;;;;;4972845;28;20106;-65
2021/12/27 00:24:30;;;;;;;3.17;1.48;;;;;;;;;;4957489;28;20024;-66
2021/12/27 00:26:56;;;;;;;1.98;1.40;;;;;;;;;;4953123;29;20082;-66
2021/12/27 00:29:22;;;;;;;1.70;1.30;;;;;;;;;;4954081;29;20031;-66
2021/12/27 00:31:48;;;;;;;1.58;1.17;;;;;;;;;;4953240;29;20023;-65
2021/12/27 00:34:14;;;;;;;3.08;1.45;;;;;;;;;;4954207;29;20043;-66
2021/12/27 00:36:40;;;;;;;1.98;1.48;;;;;;;;;;4953700;29;20041;-66
2021/12/27 00:39:06;;;;;;;2.10;1.58;;;;;;;;;;4952765;29;20026;-66
2021/12/27 00:41:32;;;;;;;1.77;1.42;;;;;;;;;;4953529;29;20050;-67
2021/12/27 00:43:58;;;;;;;1.80;1.48;;;;;;;;;;4952356;29;20059;-66
2021/12/27 00:46:24;;;;;;;1.80;1.48;;;;;;;;;;4953351;29;20066;-66
2021/12/27 00:48:50;;;;;;;1.88;1.35;;;;;;;;;;4953004;29;20491;-66
2021/12/27 00:51:16;;;;;;;1.58;1.30;;;;;;;;;;4953761;29;20058;-67
2021/12/27 00:53:42;;;;;;;3.60;1.90;;;;;;;;;;4953804;28;20384;-66
2021/12/27 00:56:08;;;;;;;2.28;1.50;;;;;;;;;;4956164;29;20015;-66
2021/12/27 00:58:34;;;;;;;2.13;1.38;;;;;;;;;;4956963;29;20539;-66
2021/12/27 01:01:01;;;;;;;2.17;1.60;;;;;;;;;;4956998;29;20126;-67
2021/12/27 01:03:27;;;;;;;2.08;1.20;;;;;;;;;;4957694;29;20023;-66
2021/12/27 01:05:53;;;;;;;1.98;1.60;;;;;;;;;;4956172;29;20031;-66
2021/12/27 01:08:19;;;;;;;2.30;1.45;;;;;;;;;;4957044;29;20038;-67
2021/12/27 01:13:40;;;;;;;3.47;1.60;;;;;;;;;;4969077;28;20076;-66
2021/12/27 01:18:34;;;;;;;1.65;1.30;;;;;;;;;;4976029;28;20086;-65
2021/12/27 01:21:00;;;;;;;7.32;1.70;;;;;;;;;;4974899;28;20388;-65
2021/12/27 01:23:26;;;;;;;3.17;1.58;;;;;;;;;;4975875;28;20102;-66
2021/12/27 01:25:52;;;;;;;1.90;1.27;;;;;;;;;;4975081;28;20023;-66
2021/12/27 01:28:19;;;;;;;2.95;1.33;;;;;;;;;;4975837;28;20034;-66
2021/12/27 01:30:48;;;;;;;2.05;1.50;;;;;;;;;;4975544;28;20416;-65
2021/12/27 01:33:15;;;;;;;2.10;1.35;;;;;;;;;;4976288;28;20112;-66
2021/12/27 01:35:41;;;;;;;1.50;1.40;;;;;;;;;;4976047;28;20026;-67
2021/12/27 01:38:07;;;;;;;2.45;1.67;;;;;;;;;;4974933;28;20143;-67
2021/12/27 01:40:33;;;;;;;1.98;1.25;;;;;;;;;;4975409;28;20038;-66
2021/12/27 01:43:08;;;;;;;2.05;1.60;;;;;;;;;;4974841;28;20070;-67
2021/12/27 01:45:36;;;;;;;2.25;1.70;;;;;;;;;;4975535;28;20228;-67
2021/12/27 01:48:02;;;;;;;1.60;1.23;;;;;;;;;;4974743;28;20022;-65
2021/12/27 01:50:28;;;;;;;1.98;1.10;;;;;;;;;;4975410;28;20033;-66
2021/12/27 01:52:54;;;;;;;1.85;1.17;;;;;;;;;;4974657;28;20451;-66
2021/12/27 01:55:20;;;;;;;2.10;1.35;;;;;;;;;;4975372;28;20471;-66
2021/12/27 01:57:46;;;;;;;1.73;1.25;;;;;;;;;;4975027;28;20109;-65
2021/12/27 02:00:13;;;;;;;2.13;1.30;;;;;;;;;;4975107;28;20027;-66
2021/12/27 02:02:39;;;;;;;1.27;1.10;;;;;;;;;;4974545;28;20110;-67
2021/12/27 02:05:05;;;;;;;1.48;1.10;;;;;;;;;;4974262;28;20137;-66
2021/12/27 02:07:31;;;;;;;1.58;1.27;;;;;;;;;;4974033;28;20030;-66
2021/12/27 02:10:06;;;;;;;2.92;1.20;;;;;;;;;;4973928;28;20031;-66
2021/12/27 02:12:32;;;;;;;1.42;1.10;;;;;;;;;;4974928;28;20082;-66
2021/12/27 02:14:58;;;;;;;1.42;1.10;;;;;;;;;;4974170;28;20448;-66
2021/12/27 02:17:24;;;;;;;1.23;0.90;;;;;;;;;;4974536;28;20396;-65
2021/12/27 02:19:51;;;;;;;1.42;1.23;;;;;;;;;;4974514;28;20035;-66
2021/12/27 02:22:17;;;;;;;2.25;1.52;;;;;;;;;;4974925;28;20368;-66
2021/12/27 02:24:43;;;;;;;2.08;1.20;;;;;;;;;;4957526;28;20063;-66
2021/12/27 02:27:13;;;;;;;1.98;1.33;;;;;;;;;;4954530;29;20083;-65
2021/12/27 02:29:39;;;;;;;2.35;1.50;;;;;;;;;;4955132;29;20034;-66
2021/12/27 02:32:05;;;;;;;1.77;1.45;;;;;;;;;;4954732;29;20027;-65
2021/12/27 02:34:31;;;;;;;1.95;1.17;;;;;;;;;;4955172;29;20114;-66
2021/12/27 02:36:57;;;;;;;1.48;1.25;;;;;;;;;;4937422;29;20035;-65
2021/12/27 02:39:25;;;;;;;2.10;1.17;;;;;;;;;;4955239;29;20027;-66
2021/12/27 02:41:51;;;;;;;1.40;1.10;;;;;;;;;;4954423;29;20070;-65
2021/12/27 02:44:17;;;;;;;1.85;0.95;;;;;;;;;;4955044;29;20065;-65
2021/12/27 02:46:43;;;;;;;1.27;0.93;;;;;;;;;;4955317;29;20106;-66
2021/12/27 02:49:09;;;;;;;1.98;1.30;;;;;;;;;;4954647;29;20121;-66
2021/12/27 02:51:35;;;;;;;1.95;0.90;;;;;;;;;;4955491;29;20564;-66
2021/12/27 02:54:01;;;;;;;1.70;1.38;;;;;;;;;;4955095;29;20114;-66
2021/12/27 02:56:29;;;;;;;1.52;1.10;;;;;;;;;;4955355;29;20381;-66
2021/12/27 02:58:56;;;;;;;1.60;0.88;;;;;;;;;;4954776;29;20107;-65
2021/12/27 03:01:23;;;;;;;1.48;1.10;;;;;;;;;;4955267;29;20070;-66
2021/12/27 03:03:49;;;;;;;2.15;1.08;;;;;;;;;;4954427;29;20369;-65
2021/12/27 03:06:15;;;;;;;2.20;0.90;;;;;;;;;;4954973;29;20477;-65
2021/12/27 03:08:41;;;;;;;1.55;1.10;;;;;;;;;;4955142;29;20031;-66
2021/12/27 03:11:09;;;;;;;1.25;1.00;;;;;;;;;;4954842;29;20415;-66
2021/12/27 03:13:37;;;;;;;2.85;1.20;;;;;;;;;;4967295;28;20042;-66
2021/12/27 03:16:07;;;;;;;1.30;0.90;;;;;;;;;;4973449;28;20166;-66
2021/12/27 03:18:34;;;;;;;1.20;1.05;;;;;;;;;;4973591;28;20530;-66
2021/12/27 03:21:00;;;;;;;1.67;1.25;;;;;;;;;;4973068;28;20031;-67
2021/12/27 03:23:26;;;;;;;1.58;1.05;;;;;;;;;;4973740;28;20139;-67
2021/12/27 03:25:55;;;;;;;1.55;1.15;;;;;;;;;;4973120;28;20035;-64
2021/12/27 03:28:21;;;;;;;1.45;0.98;;;;;;;;;;4973350;28;20454;-65
2021/12/27 03:30:48;;;;;;;1.63;1.10;;;;;;;;;;4973473;28;20383;-66
2021/12/27 03:33:15;;;;;;;6.10;1.00;;;;;;;;;;4973021;28;20491;-66
2021/12/27 03:35:51;;;;;;;4.10;1.35;;;;;;;;;;4973435;28;20023;-66
2021/12/27 03:38:17;;;;;;;2.45;0.95;;;;;;;;;;4973646;28;20058;-66
2021/12/27 03:40:45;;;;;;;1.52;1.10;;;;;;;;;;4973451;28;20035;-66
2021/12/27 03:43:11;;;;;;;2.85;1.00;;;;;;;;;;4972895;28;20105;-65
2021/12/27 03:45:38;;;;;;;6.50;1.45;;;;;;;;;;4973470;28;20452;-66
2021/12/27 03:48:05;;;;;;;1.58;0.88;;;;;;;;;;4972249;28;20061;-65
2021/12/27 03:50:31;;;;;;;1.10;0.80;;;;;;;;;;4973239;28;20058;-66
2021/12/27 03:52:57;;;;;;;1.30;1.00;;;;;;;;;;4972693;28;20023;-65
2021/12/27 03:55:24;;;;;;;1.20;0.90;;;;;;;;;;4973297;28;20054;-66
2021/12/27 03:57:56;;;;;;;1.52;1.20;;;;;;;;;;4973281;28;20022;-65
2021/12/27 04:02:52;;;;;;;2.83;1.30;;;;;;;;;;4972906;28;20035;-65
2021/12/27 04:05:18;;;;;;;1.45;0.70;;;;;;;;;;4972811;28;20146;-66
2021/12/27 04:07:47;;;;;;;1.45;0.93;;;;;;;;;;4973565;28;20053;-66
2021/12/27 04:10:13;;;;;;;1.00;0.82;;;;;;;;;;4972331;28;20215;-66
2021/12/27 04:12:39;;;;;;;1.40;0.95;;;;;;;;;;4972493;28;20058;-66
2021/12/27 04:15:07;;;;;;;1.50;0.90;;;;;;;;;;4968805;28;20039;-65
2021/12/27 04:17:33;;;;;;;2.00;1.33;;;;;;;;;;4960933;28;20019;-66
2021/12/27 04:19:59;;;;;;;3.78;1.35;;;;;;;;;;4962014;28;20034;-65
2021/12/27 04:22:25;;;;;;;1.60;1.00;;;;;;;;;;4962636;28;20024;-66
2021/12/27 04:24:51;;;;;;;1.85;1.00;;;;;;;;;;4963109;28;20018;-65
2021/12/27 04:27:17;;;;;;;2.08;1.05;;;;;;;;;;4961267;28;20094;-66
2021/12/27 04:29:43;;;;;;;2.92;1.10;;;;;;;;;;4963555;28;20051;-66
2021/12/27 04:32:09;;;;;;;1.45;1.00;;;;;;;;;;4965874;28;20691;-65
2021/12/27 04:34:35;;;;;;;1.17;0.90;;;;;;;;;;4965177;28;20027;-66
2021/12/27 04:37:01;;;;;;;1.27;0.70;;;;;;;;;;4965350;28;20164;-65
2021/12/27 04:39:27;;;;;;;1.77;1.00;;;;;;;;;;4966932;28;20062;-66
2021/12/27 04:41:54;;;;;;;1.33;1.00;;;;;;;;;;4963609;28;20110;-65
2021/12/27 04:44:20;;;;;;;1.98;1.00;;;;;;;;;;4957901;29;20035;-65
2021/12/27 04:46:46;;;;;;;1.80;0.90;;;;;;;;;;4958103;29;20334;-66
2021/12/27 04:49:12;;;;;;;1.27;1.08;;;;;;;;;;4957396;29;20030;-65
2021/12/27 04:51:38;;;;;;;1.98;0.95;;;;;;;;;;4957696;29;20384;-66
2021/12/27 04:54:04;;;;;;;1.60;1.10;;;;;;;;;;4961902;28;20019;-66
2021/12/27 04:56:30;;;;;;;1.13;0.80;;;;;;;;;;4965456;28;20026;-65
2021/12/27 04:58:56;;;;;;;2.22;1.05;;;;;;;;;;4964899;28;20011;-65
2021/12/27 05:01:23;;;;;;;1.23;1.00;;;;;;;;;;4966452;28;20129;-65
2021/12/27 05:03:49;;;;;;;1.65;1.02;;;;;;;;;;4965276;28;20050;-66
2021/12/27 05:06:15;;;;;;;1.30;0.98;;;;;;;;;;4965644;28;20138;-65
2021/12/27 05:08:42;;;;;;;1.45;1.08;;;;;;;;;;4966698;28;20047;-66
2021/12/27 05:11:08;;;;;;;2.35;1.30;;;;;;;;;;4961919;28;20023;-66
2021/12/27 05:13:35;;;;;;;2.13;1.25;;;;;;;;;;4965735;28;20367;-66
2021/12/27 05:16:01;;;;;;;1.95;1.00;;;;;;;;;;4966032;28;20023;-66
2021/12/27 05:18:27;;;;;;;1.52;0.95;;;;;;;;;;4962157;28;20046;-65
2021/12/27 05:20:54;;;;;;;1.55;0.90;;;;;;;;;;4957925;28;20055;-65
2021/12/27 05:23:20;;;;;;;2.03;1.00;;;;;;;;;;4963204;28;20025;-66
2021/12/27 05:25:46;;;;;;;2.13;1.20;;;;;;;;;;4976522;28;20415;-66
2021/12/27 05:28:12;;;;;;;1.60;0.82;;;;;;;;;;4975944;28;20019;-66
2021/12/27 05:30:39;;;;;;;1.40;1.10;;;;;;;;;;4976506;28;20336;-66
2021/12/27 05:33:05;;;;;;;2.42;1.33;;;;;;;;;;4972189;28;20476;-66
2021/12/27 05:35:31;;;;;;;1.80;1.20;;;;;;;;;;4965482;28;20034;-66
2021/12/27 05:37:57;;;;;;;1.52;0.80;;;;;;;;;;4963831;28;20034;-65
2021/12/27 05:40:24;;;;;;;2.30;1.30;;;;;;;;;;4963252;28;20472;-66
2021/12/27 05:42:51;;;;;;;7.13;2.15;;;;;;;;;;4965113;28;20034;-66
2021/12/27 05:45:17;;;;;;;1.50;1.10;;;;;;;;;;4964055;28;20083;-66
2021/12/27 05:47:44;;;;;;;2.63;1.40;;;;;;;;;;4963984;28;20376;-66
2021/12/27 05:50:11;;;;;;;2.20;1.83;;;;;;;;;;4964673;28;20023;-66
2021/12/27 05:52:37;;;;;;;2.10;1.25;;;;;;;;;;4963942;28;20027;-66
2021/12/27 05:55:04;;;;;;;2.97;1.17;;;;;;;;;;4963327;28;20030;-66
2021/12/27 05:57:30;;;;;;;2.35;1.05;;;;;;;;;;4965509;28;20023;-66
2021/12/27 05:59:56;;;;;;;1.50;1.10;;;;;;;;;;4953780;28;20039;-66
2021/12/27 06:02:22;;;;;;;2.05;1.13;;;;;;;;;;4963968;28;20125;-66
2021/12/27 06:04:48;;;;;;;4.45;2.33;;;;;;;;;;4965234;28;20041;-66
2021/12/27 06:07:14;;;;;;;3.03;1.63;;;;;;;;;;4962565;28;20122;-65
2021/12/27 06:09:40;;;;;;;2.90;1.40;;;;;;;;;;4964365;28;20102;-66
2021/12/27 06:12:06;;;;;;;2.58;1.25;;;;;;;;;;4964071;28;20031;-65
2021/12/27 06:14:32;;;;;;;2.85;1.05;;;;;;;;;;4963159;28;20026;-66
2021/12/27 06:16:58;;;;;;;1.83;1.00;;;;;;;;;;4963486;28;20388;-65
2021/12/27 06:19:24;;;;;;;2.40;1.02;;;;;;;;;;4964441;28;20050;-64
2021/12/27 06:21:50;;;;;;;3.47;1.08;;;;;;;;;;4962324;28;20802;-66
2021/12/27 06:24:16;;;;;;;2.28;1.20;;;;;;;;;;4963556;28;20019;-66
2021/12/27 06:26:42;;;;;;;2.05;1.10;;;;;;;;;;4965717;28;20507;-66
2021/12/27 06:29:08;;;;;;;3.92;1.13;;;;;;;;;;4974343;28;20027;-65
2021/12/27 06:31:34;;;;;;;2.53;1.60;;;;;;;;;;4974842;28;20105;-66
2021/12/27 06:34:00;;;;;;;3.10;1.33;;;;;;;;;;4973983;28;20118;-65
2021/12/27 06:36:27;;;;;;;1.98;1.35;;;;;;;;;;4953280;29;20027;-66
2021/12/27 06:38:53;;;;;;;1.83;1.13;;;;;;;;;;4954435;29;20111;-66
2021/12/27 06:41:19;;;;;;;3.22;1.25;;;;;;;;;;4955701;29;20038;-65
2021/12/27 06:43:45;;;;;;;2.70;1.35;;;;;;;;;;4955297;29;20024;-66
2021/12/27 06:46:11;;;;;;;3.03;1.45;;;;;;;;;;4954652;29;20075;-65
2021/12/27 06:48:37;;;;;;;2.40;1.33;;;;;;;;;;4955565;29;20110;-66
2021/12/27 06:51:03;;;;;;;3.38;1.50;;;;;;;;;;4954674;29;20498;-65
2021/12/27 06:53:30;;;;;;;3.05;1.00;;;;;;;;;;4954958;28;20027;-65
2021/12/27 06:55:57;;;;;;;1.38;1.00;;;;;;;;;;4954511;29;20538;-65
2021/12/27 06:58:23;;;;;;;2.05;1.13;;;;;;;;;;4937859;29;20428;-66
2021/12/27 07:00:50;;;;;;;2.17;0.95;;;;;;;;;;4954992;29;20493;-66
2021/12/27 07:03:17;;;;;;;3.22;1.02;;;;;;;;;;4955206;29;20480;-66
2021/12/27 07:05:43;;;;;;;2.53;1.48;;;;;;;;;;4955062;29;20027;-66
2021/12/27 07:08:09;;;;;;;2.55;1.42;;;;;;;;;;4954384;29;20019;-65
2021/12/27 07:10:36;;;;;;;2.55;1.30;;;;;;;;;;4955278;29;20058;-65
2021/12/27 07:13:03;;;;;;;3.17;1.48;;;;;;;;;;4956736;28;20057;-66
2021/12/27 07:15:30;;;;;;;2.72;1.13;;;;;;;;;;4974477;28;20157;-65
2021/12/27 07:17:56;;;;;;;3.75;1.75;;;;;;;;;;4973270;28;20038;-63
2021/12/27 07:20:22;;;;;;;3.53;1.38;;;;;;;;;;4974197;28;20499;-65
2021/12/27 07:22:48;;;;;;;2.03;0.98;;;;;;;;;;4974321;28;20026;-66
2021/12/27 07:25:14;;;;;;;3.88;1.10;;;;;;;;;;4973006;28;20035;-62
2021/12/27 07:27:40;;;;;;;3.17;1.20;;;;;;;;;;4974130;28;20022;-61
2021/12/27 07:30:08;;;;;;;2.17;0.93;;;;;;;;;;4973666;28;20054;-69
2021/12/27 07:32:34;;;;;;;1.98;1.45;;;;;;;;;;4974245;28;20035;-67
2021/12/27 07:35:00;;;;;;;5.18;1.35;;;;;;;;;;4973744;28;20030;-59
2021/12/27 07:37:26;;;;;;;1.92;0.82;;;;;;;;;;4973942;28;20113;-57
2021/12/27 07:39:52;;;;;;;3.75;1.50;;;;;;;;;;4973611;28;20031;-59
2021/12/27 07:42:18;;;;;;;4.53;1.10;;;;;;;;;;4973943;28;20027;-59
2021/12/27 07:44:44;;;;;;;3.58;1.63;;;;;;;;;;4973418;28;20039;-58
2021/12/27 07:47:11;;;;;;;4.57;1.58;;;;;;;;;;4972630;28;20019;-58
2021/12/27 07:49:37;;;;;;;4.85;1.40;;;;;;;;;;4973442;28;20022;-58
2021/12/27 07:52:03;;;;;;;2.00;0.80;;;;;;;;;;4973093;28;20065;-58
2021/12/27 07:54:29;;;;;;;1.98;0.88;;;;;;;;;;4973458;28;20027;-59
2021/12/27 07:56:56;;;;;;;1.25;1.10;;;;;;;;;;4973159;28;20155;-59
2021/12/27 07:59:22;;;;;;;3.13;1.23;;;;;;;;;;4973339;28;20033;-59
2021/12/27 08:01:48;;;;;;;4.85;1.08;;;;;;;;;;4973386;28;20039;-58
2021/12/27 08:04:14;;;;;;;4.38;1.30;;;;;;;;;;4974096;28;20030;-58
2021/12/27 08:06:40;;;;;;;3.55;1.30;;;;;;;;;;4973679;28;20404;-59
2021/12/27 08:09:06;;;;;;;1.15;0.95;;;;;;;;;;4955342;28;20027;-58
2021/12/27 08:11:33;;;;;;;1.83;0.93;;;;;;;;;;4973640;28;20062;-56
2021/12/27 08:13:59;;;;;;;4.07;0.90;;;;;;;;;;4971191;28;20047;-59
2021/12/27 08:16:25;;;;;;;4.07;1.17;;;;;;;;;;4973255;28;20027;-58
2021/12/27 08:18:52;;;;;;;2.25;0.90;;;;;;;;;;4973415;28;20166;-56
2021/12/27 08:21:18;;;;;;;2.58;1.20;;;;;;;;;;4973339;28;20034;-57
2021/12/27 08:23:44;;;;;;;5.03;1.60;;;;;;;;;;4973297;28;20050;-55
2021/12/27 08:26:10;;;;;;;3.63;0.82;;;;;;;;;;4972684;28;20027;-56
2021/12/27 08:28:36;;;;;;;1.35;0.90;;;;;;;;;;4973280;28;20022;-53
2021/12/27 08:31:02;;;;;;;5.55;1.42;;;;;;;;;;4972662;28;20065;-55
2021/12/27 08:33:28;;;;;;;4.82;1.17;;;;;;;;;;4972941;28;20110;-50
2021/12/27 08:35:54;;;;;;;5.97;1.25;;;;;;;;;;4972788;28;20066;-56
2021/12/27 08:38:20;;;;;;;1.52;0.98;;;;;;;;;;4973229;28;20027;-55
2021/12/27 08:40:46;;;;;;;2.45;1.00;;;;;;;;;;4972981;28;20037;-55
2021/12/27 08:43:12;;;;;;;2.95;1.42;;;;;;;;;;4972393;28;20027;-55
2021/12/27 08:45:39;;;;;;;7.63;1.27;;;;;;;;;;4973183;28;20362;-55
2021/12/27 08:48:05;;;;;;;2.72;1.20;;;;;;;;;;4972579;28;20027;-56
2021/12/27 08:50:31;;;;;;;3.65;0.90;;;;;;;;;;4973147;28;20037;-57
2021/12/27 08:52:57;;;;;;;11.98;2.00;;;;;;;;;;4971943;28;20023;-59
2021/12/27 08:55:23;;;;;;;5.65;1.10;;;;;;;;;;4972579;28;20034;-58
2021/12/27 08:57:49;;;;;;;4.22;0.88;;;;;;;;;;4973000;28;20486;-56
2021/12/27 09:00:16;;;;;;;3.55;1.20;;;;;;;;;;4972373;28;20387;-59
2021/12/27 09:02:43;;;;;;;7.43;1.63;;;;;;;;;;4973841;28;20533;-58
2021/12/27 09:05:10;;;;;;;6.57;1.52;;;;;;;;;;4973069;28;20157;-51
2021/12/27 09:07:36;;;;;;;6.07;1.73;;;;;;;;;;4973769;28;20034;-60
2021/12/27 09:10:02;;;;;;;8.25;1.40;;;;;;;;;;4972556;28;20101;-57
2021/12/27 09:12:28;;;;;;;10.20;1.75;;;;;;;;;;4972962;28;20472;-60
2021/12/27 09:14:54;;;;;;;4.38;1.63;;;;;;;;;;4973478;28;20042;-52
2021/12/27 09:17:20;;;;;;;5.43;1.73;;;;;;;;;;4976079;28;20435;-58
2021/12/27 09:19:46;;;;;;;3.10;1.13;;;;;;;;;;4975543;28;20506;-55
2021/12/27 09:22:15;;;;;;;4.38;1.38;;;;;;;;;;4975632;28;20475;-51
2021/12/27 09:24:41;;;;;;;9.13;1.75;;;;;;;;;;4976043;28;20019;-65
2021/12/27 09:27:07;;;;;;;4.00;1.20;;;;;;;;;;4975489;28;20495;-52
2021/12/27 09:29:33;;;;;;;3.28;1.52;;;;;;;;;;4975559;28;20041;-58
2021/12/27 09:31:59;;;;;;;10.18;1.38;;;;;;;;;;4975510;28;20081;-49
2021/12/27 09:34:25;;;;;;;7.15;1.52;;;;;;;;;;4975942;28;20019;-58
2021/12/27 09:36:51;;;;;;;2.58;1.38;;;;;;;;;;4975940;28;20369;-58
2021/12/27 09:39:17;;;;;;;5.63;2.15;;;;;;;;;;4975444;28;20031;-59
2021/12/27 09:41:44;;;;;;;7.90;1.88;;;;;;;;;;4975618;28;20050;-54
2021/12/27 09:44:10;;;;;;;14.05;1.52;;;;;;;;;;4974030;28;20045;-58
2021/12/27 09:46:36;;;;;;;4.43;1.70;;;;;;;;;;4974692;28;20038;-57
2021/12/27 09:49:04;;;;;;;3.83;0.90;;;;;;;;;;4975127;28;20027;-57
2021/12/27 09:51:31;;;;;;;4.43;1.30;;;;;;;;;;4975670;28;20365;-55
2021/12/27 09:53:57;;;;;;;4.68;1.30;;;;;;;;;;4975048;28;20434;-58
2021/12/27 09:56:23;;;;;;;4.03;1.05;;;;;;;;;;4975222;28;20027;-56
2021/12/27 09:58:49;;;;;;;3.72;1.10;;;;;;;;;;4975442;28;20065;-52
2021/12/27 10:01:15;;;;;;;1.40;1.10;;;;;;;;;;4974340;28;20070;-57
2021/12/27 10:03:48;;;;;;;3.67;1.42;;;;;;;;;;4975338;28;20030;-56
2021/12/27 10:06:15;;;;;;;3.92;1.23;;;;;;;;;;4974611;28;20034;-58
2021/12/27 10:08:49;;;;;;;3.65;0.90;;;;;;;;;;4975415;28;20031;-56
2021/12/27 10:11:16;;;;;;;4.10;1.17;;;;;;;;;;4974270;28;20476;-56
2021/12/27 10:13:56;;;;;;;4.95;1.15;;;;;;;;;;4975182;28;20134;-57
2021/12/27 10:16:22;;;;;;;3.00;0.90;;;;;;;;;;4975335;28;20033;-58
2021/12/27 10:18:53;;;;;;;1.40;0.80;;;;;;;;;;4975146;28;20023;-58
2021/12/27 10:21:18;;;;;;;8.00;1.27;;;;;;;;;;4973920;28;20093;-54
2021/12/27 10:23:45;;;;;;;3.42;1.10;;;;;;;;;;4974748;28;20431;-55
2021/12/27 10:26:16;;;;;;;3.35;0.90;;;;;;;;;;4973659;28;20022;-57
2021/12/27 10:28:42;;;;;;;8.88;1.25;;;;;;;;;;4974331;28;20033;-54
2021/12/27 10:31:08;;;;;;;9.30;1.00;;;;;;;;;;4973995;28;20027;-59
2021/12/27 10:33:34;;;;;;;6.43;1.75;;;;;;;;;;4974334;28;20472;-61
2021/12/27 10:36:00;;;;;;;2.33;1.20;;;;;;;;;;4974112;28;20054;-61
2021/12/27 10:38:31;;;;;;;4.38;1.98;;;;;;;;;;4974468;28;20031;-57
2021/12/27 10:41:00;;;;;;;6.10;1.20;;;;;;;;;;4974299;28;20066;-59
2021/12/27 10:43:33;;;;;;;8.45;2.00;;;;;;;;;;4974219;28;20015;-54
2021/12/27 10:46:01;;;;;;;7.18;1.67;;;;;;;;;;4973916;28;20472;-61
2021/12/27 10:48:31;;;;;;;4.38;1.23;;;;;;;;;;4974716;28;20025;-58
2021/12/27 10:50:57;;;;;;;3.25;1.25;;;;;;;;;;4974797;28;20062;-59
2021/12/27 10:53:24;;;;;;;5.65;1.10;;;;;;;;;;4974733;28;20359;-59
2021/12/27 10:55:50;;;;;;;3.60;1.30;;;;;;;;;;4974264;28;20054;-59
2021/12/27 10:58:23;;;;;;;3.83;1.30;;;;;;;;;;4973231;28;20031;-59
2021/12/27 11:01:03;;;;;;;4.43;1.42;;;;;;;;;;4974436;28;20064;-59
2021/12/27 11:03:31;;;;;;;5.78;1.10;;;;;;;;;;4974367;28;20027;-59
2021/12/27 11:05:58;;;;;;;3.55;1.00;;;;;;;;;;4974776;28;20031;-59
2021/12/27 11:08:26;;;;;;;2.65;1.00;;;;;;;;;;4974250;28;20035;-59
2021/12/27 11:10:52;;;;;;;3.33;1.00;;;;;;;;;;4973444;28;20146;-59
2021/12/27 11:13:18;;;;;;;3.80;1.45;;;;;;;;;;4972589;28;20430;-59
2021/12/27 11:15:44;;;;;;;1.77;0.82;;;;;;;;;;4974256;28;20493;-59
2021/12/27 11:18:12;;;;;;;1.17;0.55;;;;;;;;;;4973750;28;20026;-59
2021/12/27 11:20:42;;;;;;;2.92;1.20;;;;;;;;;;4974170;28;20415;-59
2021/12/27 11:23:10;;;;;;;2.17;0.82;;;;;;;;;;4973873;28;20039;-59
2021/12/27 11:25:38;;;;;;;2.00;0.82;;;;;;;;;;4974147;28;20473;-59
2021/12/27 11:28:24;;;;;;;2.47;0.80;;;;;;;;;;4973242;28;20476;-59
2021/12/27 11:30:50;;;;;;;2.55;0.80;;;;;;;;;;4974396;28;20065;-59
2021/12/27 11:33:20;;;;;;;4.93;1.00;;;;;;;;;;4973462;28;20031;-59
2021/12/27 11:35:57;;;;;;;2.72;1.27;;;;;;;;;;4973948;28;20030;-59
2021/12/27 11:38:29;;;;;;;2.05;0.80;;;;;;;;;;4973667;28;20030;-59
2021/12/27 11:40:55;;;;;;;4.60;1.20;;;;;;;;;;4973908;28;20046;-59
2021/12/27 11:43:21;;;;;;;2.83;0.80;;;;;;;;;;4972831;28;20054;-59
2021/12/27 11:45:50;;;;;;;3.40;0.90;;;;;;;;;;4973912;28;20027;-59
2021/12/27 11:48:18;;;;;;;1.45;0.95;;;;;;;;;;4973246;28;20484;-59
2021/12/27 11:50:59;;;;;;;2.00;0.82;;;;;;;;;;4974274;28;20035;-59
2021/12/27 11:53:29;;;;;;;3.30;1.00;;;;;;;;;;4973772;28;20039;-59
2021/12/27 11:55:55;;;;;;;3.35;1.27;;;;;;;;;;4973898;28;20023;-59
2021/12/27 11:58:35;;;;;;;3.20;0.80;;;;;;;;;;4973125;28;20051;-58
2021/12/27 12:01:02;;;;;;;2.80;1.77;;;;;;;;;;4972968;28;20062;-58
2021/12/27 12:03:37;;;;;;;1.05;0.70;;;;;;;;;;4973988;28;20026;-59
2021/12/27 12:06:04;;;;;;;2.38;1.10;;;;;;;;;;4973070;28;20023;-59
2021/12/27 12:08:39;;;;;;;1.77;1.00;;;;;;;;;;4973544;28;20031;-59
2021/12/27 12:11:06;;;;;;;1.48;0.73;;;;;;;;;;4973032;28;20027;-59
2021/12/27 12:13:40;;;;;;;1.40;0.80;;;;;;;;;;4973074;28;20039;-59
2021/12/27 12:16:07;;;;;;;1.42;0.82;;;;;;;;;;4972724;28;20041;-59
2021/12/27 12:18:36;;;;;;;1.58;0.90;;;;;;;;;;4973310;28;20031;-59
2021/12/27 12:21:02;;;;;;;2.67;0.80;;;;;;;;;;4972820;28;20386;-59
2021/12/27 12:23:28;;;;;;;1.45;0.95;;;;;;;;;;4966009;28;20024;-59
2021/12/27 12:26:02;;;;;;;2.20;0.65;;;;;;;;;;4954123;29;20525;-59
2021/12/27 12:28:28;;;;;;;3.00;1.52;;;;;;;;;;4954011;29;20031;-59
2021/12/27 12:30:55;;;;;;;0.95;0.70;;;;;;;;;;4954051;29;20082;-59
2021/12/27 12:33:25;;;;;;;1.58;0.93;;;;;;;;;;4953372;29;20244;-59
2021/12/27 12:35:51;;;;;;;1.45;0.77;;;;;;;;;;4953941;29;20027;-59
2021/12/27 12:38:23;;;;;;;0.90;0.80;;;;;;;;;;4953240;29;20034;-59
2021/12/27 12:41:04;;;;;;;1.70;1.02;;;;;;;;;;4954025;29;20058;-59
2021/12/27 12:43:33;;;;;;;1.13;0.95;;;;;;;;;;4953879;29;20035;-59
2021/12/27 12:45:59;;;;;;;1.17;0.70;;;;;;;;;;4953713;29;20031;-59
2021/12/27 12:48:28;;;;;;;1.30;0.80;;;;;;;;;;4953290;29;20027;-58
2021/12/27 12:50:55;;;;;;;1.52;0.80;;;;;;;;;;4955873;28;20039;-58
2021/12/27 12:53:29;;;;;;;2.00;0.90;;;;;;;;;;4956838;29;20027;-59
2021/12/27 12:55:58;;;;;;;1.20;0.80;;;;;;;;;;4957698;29;20110;-59
2021/12/27 12:58:33;;;;;;;1.17;0.70;;;;;;;;;;4957149;29;20384;-59
2021/12/27 13:01:09;;;;;;;1.38;0.98;;;;;;;;;;4957236;29;20532;-59
2021/12/27 13:03:36;;;;;;;1.30;0.90;;;;;;;;;;4957367;29;20066;-59
2021/12/27 13:06:04;;;;;;;1.67;0.98;;;;;;;;;;4956928;29;20034;-58
2021/12/27 13:08:31;;;;;;;2.03;0.77;;;;;;;;;;4957329;29;20051;-59
2021/12/27 13:10:58;;;;;;;0.77;0.60;;;;;;;;;;4956988;29;20063;-59
2021/12/27 13:13:24;;;;;;;1.35;1.00;;;;;;;;;;4967259;28;20042;-59
2021/12/27 13:16:03;;;;;;;0.70;0.63;;;;;;;;;;4976414;28;20420;-59
2021/12/27 13:18:33;;;;;;;1.83;0.88;;;;;;;;;;4976541;28;20023;-59
2021/12/27 13:21:04;;;;;;;0.90;0.70;;;;;;;;;;4976029;28;20407;-59
2021/12/27 13:23:32;;;;;;;1.63;0.77;;;;;;;;;;4976668;28;20031;-59
2021/12/27 13:25:59;;;;;;;0.93;0.80;;;;;;;;;;4976352;28;20027;-59
2021/12/27 13:28:26;;;;;;;0.88;0.60;;;;;;;;;;4975666;28;20475;-58
2021/12/27 13:31:08;;;;;;;2.78;0.70;;;;;;;;;;4975846;28;20034;-59
2021/12/27 13:33:37;;;;;;;1.03;0.80;;;;;;;;;;4976107;28;20031;-59
2021/12/27 13:36:05;;;;;;;0.90;0.90;;;;;;;;;;4975465;28;20324;-59
2021/12/27 13:38:36;;;;;;;0.77;0.60;;;;;;;;;;4976359;28;20026;-59
2021/12/27 13:41:13;;;;;;;0.65;0.60;;;;;;;;;;4975967;28;20074;-59
2021/12/27 13:43:53;;;;;;;0.88;0.75;;;;;;;;;;4976150;28;20042;-59
2021/12/27 13:46:21;;;;;;;1.00;0.60;;;;;;;;;;4975062;28;20031;-59
2021/12/27 13:48:48;;;;;;;1.33;0.73;;;;;;;;;;4975751;28;20416;-59
2021/12/27 13:51:18;;;;;;;0.80;0.65;;;;;;;;;;4975437;28;20026;-59
2021/12/27 13:53:52;;;;;;;1.65;1.05;;;;;;;;;;4975949;28;20102;-58
2021/12/27 13:56:18;;;;;;;1.23;0.70;;;;;;;;;;4975239;28;20451;-59
2021/12/27 13:58:45;;;;;;;1.25;0.60;;;;;;;;;;4976183;28;20066;-59
2021/12/27 14:01:16;;;;;;;1.95;0.50;;;;;;;;;;4974026;28;20039;-59
2021/12/27 14:03:43;;;;;;;1.23;0.68;;;;;;;;;;4974787;28;20115;-58
2021/12/27 14:06:11;;;;;;;2.80;0.68;;;;;;;;;;4975153;28;20103;-56
2021/12/27 14:08:37;;;;;;;1.00;0.60;;;;;;;;;;4975645;28;20149;-59
2021/12/27 14:11:03;;;;;;;0.88;0.68;;;;;;;;;;4975668;28;20027;-58
2021/12/27 14:13:45;;;;;;;2.08;0.57;;;;;;;;;;4974826;28;20130;-59
2021/12/27 14:16:21;;;;;;;1.20;0.93;;;;;;;;;;4974368;28;20516;-59
2021/12/27 14:19:05;;;;;;;1.25;0.65;;;;;;;;;;4974491;28;20078;-59
2021/12/27 14:21:32;;;;;;;1.77;0.75;;;;;;;;;;4975238;28;20436;-59
2021/12/27 14:24:08;;;;;;;1.13;1.00;;;;;;;;;;4964118;28;20056;-59
2021/12/27 14:26:34;;;;;;;0.90;0.73;;;;;;;;;;4956406;29;20122;-59
2021/12/27 14:29:13;;;;;;;1.58;0.88;;;;;;;;;;4955890;29;20461;-59
2021/12/27 14:31:39;;;;;;;1.10;0.77;;;;;;;;;;4955887;29;20027;-59
2021/12/27 14:34:05;;;;;;;1.27;0.60;;;;;;;;;;4955161;29;20468;-59
2021/12/27 14:36:31;;;;;;;1.02;0.80;;;;;;;;;;4955995;29;20060;-58
2021/12/27 14:38:57;;;;;;;0.88;0.80;;;;;;;;;;4955636;29;20376;-58
2021/12/27 14:41:23;;;;;;;1.90;0.60;;;;;;;;;;4954973;29;20035;-59
2021/12/27 14:43:49;;;;;;;0.73;0.70;;;;;;;;;;4955872;29;20067;-58
2021/12/27 14:46:15;;;;;;;1.00;0.60;;;;;;;;;;4955127;29;20038;-59
2021/12/27 14:48:42;;;;;;;1.67;0.60;;;;;;;;;;4955224;29;20027;-58
2021/12/27 14:51:09;;;;;;;0.93;0.63;;;;;;;;;;4954957;29;20031;-58